sensor_id;sensor_type;location;lat;lon;timestamp;temperature;humidity
1165;DHT22;571;50.930;6.926;2023-02-03T03:47:56;10.20;99.90
1165;DHT22;571;50.930;6.926;2023-02-03T03:50:26;10.30;99.90
1165;DHT22;571;50.930;6.926;2023-02-03T03:52:54;10.40;99.90
1165;DHT22;571;50.930;6.926;2023-02-03T03:55:23;10.40;99.90
1165;DHT22;571;50.930;6.926;2023-02-03T03:57:56;10.30;99.90
1165;DHT22;571;50.930;6.926;2023-02-03T04:00:25;10.30;99.90
1165;DHT22;571;50.930;6.926;2023-02-03T04:02:56;10.40;99.90
1165;DHT22;571;50.930;6.926;2023-02-03T04:05:24;10.40;99.90
1165;DHT22;571;50.930;6.926;2023-02-03T04:07:52;10.40;99.90
1165;DHT22;571;50.930;6.926;2023-02-03T04:10:25;10.40;99.90
1165;DHT22;571;50.930;6.926;2023-02-03T04:12:53;10.40;99.90
1165;DHT22;571;50.930;6.926;2023-02-03T04:15:20;10.40;99.90
1165;DHT22;571;50.930;6.926;2023-02-03T04:17:46;10.30;99.90
1165;DHT22;571;50.930;6.926;2023-02-03T04:20:15;10.30;99.90
1165;DHT22;571;50.930;6.926;2023-02-03T04:22:41;10.30;99.90
1165;DHT22;571;50.930;6.926;2023-02-03T04:25:08;10.40;99.90
1165;DHT22;571;50.930;6.926;2023-02-03T04:27:35;10.30;99.90
1165;DHT22;571;50.930;6.926;2023-02-03T04:30:03;10.30;99.90
1165;DHT22;571;50.930;6.926;2023-02-03T04:32:30;10.30;99.90
1165;DHT22;571;50.930;6.926;2023-02-03T04:34:57;10.20;99.90
1165;DHT22;571;50.930;6.926;2023-02-03T04:37:25;10.20;99.90
1165;DHT22;571;50.930;6.926;2023-02-03T04:39:52;10.30;99.90
1165;DHT22;571;50.930;6.926;2023-02-03T04:42:20;10.40;99.90
1165;DHT22;571;50.930;6.926;2023-02-03T04:44:46;10.30;99.90
1165;DHT22;571;50.930;6.926;2023-02-03T04:47:13;10.20;99.90
1165;DHT22;571;50.930;6.926;2023-02-03T04:49:40;10.20;99.90
1165;DHT22;571;50.930;6.926;2023-02-03T04:52:07;10.30;99.90
1165;DHT22;571;50.930;6.926;2023-02-03T04:54:35;10.30;99.90
1165;DHT22;571;50.930;6.926;2023-02-03T04:57:03;10.20;99.90
1165;DHT22;571;50.930;6.926;2023-02-03T04:59:29;10.20;99.90
1165;DHT22;571;50.930;6.926;2023-02-03T05:01:56;10.20;99.90
1165;DHT22;571;50.930;6.926;2023-02-03T05:04:23;10.30;99.90
1165;DHT22;571;50.930;6.926;2023-02-03T05:06:50;10.30;99.90
1165;DHT22;571;50.930;6.926;2023-02-03T05:09:17;10.20;99.90
1165;DHT22;571;50.930;6.926;2023-02-03T05:11:45;10.30;99.90
1165;DHT22;571;50.930;6.926;2023-02-03T05:14:12;10.30;99.90
1165;DHT22;571;50.930;6.926;2023-02-03T05:16:39;10.30;99.90
1165;DHT22;571;50.930;6.926;2023-02-03T05:19:05;10.40;99.90
1165;DHT22;571;50.930;6.926;2023-02-03T05:21:33;10.40;99.90
1165;DHT22;571;50.930;6.926;2023-02-03T05:24:00;10.40;99.90
1165;DHT22;571;50.930;6.926;2023-02-03T05:26:28;10.40;99.90
1165;DHT22;571;50.930;6.926;2023-02-03T05:28:56;10.30;99.90
1165;DHT22;571;50.930;6.926;2023-02-03T05:31:23;10.40;99.90
1165;DHT22;571;50.930;6.926;2023-02-03T05:33:49;10.30;99.90
1165;DHT22;571;50.930;6.926;2023-02-03T05:36:16;10.30;99.90
1165;DHT22;571;50.930;6.926;2023-02-03T05:38:43;10.30;99.90
1165;DHT22;571;50.930;6.926;2023-02-03T05:41:10;10.30;99.90
1165;DHT22;571;50.930;6.926;2023-02-03T05:44:01;10.30;99.90
1165;DHT22;571;50.930;6.926;2023-02-03T05:46:28;10.20;99.90
1165;DHT22;571;50.930;6.926;2023-02-03T05:48:54;10.20;99.90
1165;DHT22;571;50.930;6.926;2023-02-03T05:51:21;10.30;99.90
1165;DHT22;571;50.930;6.926;2023-02-03T05:53:49;10.30;99.90
1165;DHT22;571;50.930;6.926;2023-02-03T05:56:17;10.20;99.90
1165;DHT22;571;50.930;6.926;2023-02-03T05:58:44;10.20;99.90
1165;DHT22;571;50.930;6.926;2023-02-03T06:01:12;10.20;99.90
1165;DHT22;571;50.930;6.926;2023-02-03T06:03:39;10.20;99.90
1165;DHT22;571;50.930;6.926;2023-02-03T06:06:06;10.20;99.90
1165;DHT22;571;50.930;6.926;2023-02-03T06:08:32;10.20;99.90
1165;DHT22;571;50.930;6.926;2023-02-03T06:10:59;10.30;99.90
1165;DHT22;571;50.930;6.926;2023-02-03T06:13:26;10.30;99.90
1165;DHT22;571;50.930;6.926;2023-02-03T06:15:53;10.30;99.90
1165;DHT22;571;50.930;6.926;2023-02-03T06:18:22;10.30;99.90
1165;DHT22;571;50.930;6.926;2023-02-03T06:20:49;10.30;99.90
1165;DHT22;571;50.930;6.926;2023-02-03T06:23:18;10.40;99.90
1165;DHT22;571;50.930;6.926;2023-02-03T06:25:46;10.30;99.90
1165;DHT22;571;50.930;6.926;2023-02-03T06:28:13;10.30;99.90
1165;DHT22;571;50.930;6.926;2023-02-03T06:30:40;10.30;99.90
1165;DHT22;571;50.930;6.926;2023-02-03T06:33:07;10.30;99.90
1165;DHT22;571;50.930;6.926;2023-02-03T06:35:36;10.30;99.90
1165;DHT22;571;50.930;6.926;2023-02-03T06:38:02;10.30;99.90
1165;DHT22;571;50.930;6.926;2023-02-03T06:40:29;10.20;99.90
1165;DHT22;571;50.930;6.926;2023-02-03T06:42:56;10.20;99.90
1165;DHT22;571;50.930;6.926;2023-02-03T06:45:23;10.30;99.90
1165;DHT22;571;50.930;6.926;2023-02-03T06:47:50;10.30;99.90
1165;DHT22;571;50.930;6.926;2023-02-03T06:50:17;10.40;99.90
1165;DHT22;571;50.930;6.926;2023-02-03T06:52:45;10.30;99.90
1165;DHT22;571;50.930;6.926;2023-02-03T06:55:14;10.30;99.90
1165;DHT22;571;50.930;6.926;2023-02-03T06:57:45;10.30;99.90
1165;DHT22;571;50.930;6.926;2023-02-03T07:00:13;10.30;99.90
1165;DHT22;571;50.930;6.926;2023-02-03T07:02:40;10.40;99.90
1165;DHT22;571;50.930;6.926;2023-02-03T07:05:07;10.40;99.90
1165;DHT22;571;50.930;6.926;2023-02-03T07:07:34;10.40;99.90
1165;DHT22;571;50.930;6.926;2023-02-03T07:10:05;10.40;99.90
1165;DHT22;571;50.930;6.926;2023-02-03T07:12:32;10.40;99.90
1165;DHT22;571;50.930;6.926;2023-02-03T07:15:01;10.40;99.90
1165;DHT22;571;50.930;6.926;2023-02-03T07:17:27;10.40;99.90
1165;DHT22;571;50.930;6.926;2023-02-03T07:19:54;10.40;99.90
1165;DHT22;571;50.930;6.926;2023-02-03T07:22:21;10.30;99.90
1165;DHT22;571;50.930;6.926;2023-02-03T07:24:48;10.50;99.90
1165;DHT22;571;50.930;6.926;2023-02-03T07:27:16;10.40;99.90
1165;DHT22;571;50.930;6.926;2023-02-03T07:29:43;10.50;99.90
1165;DHT22;571;50.930;6.926;2023-02-03T07:32:10;10.50;99.90
1165;DHT22;571;50.930;6.926;2023-02-03T07:34:37;10.40;99.90
1165;DHT22;571;50.930;6.926;2023-02-03T07:37:04;10.40;99.90
1165;DHT22;571;50.930;6.926;2023-02-03T07:39:31;10.40;99.90
1165;DHT22;571;50.930;6.926;2023-02-03T07:41:58;10.50;99.90
1165;DHT22;571;50.930;6.926;2023-02-03T07:44:26;10.60;99.90
1165;DHT22;571;50.930;6.926;2023-02-03T07:46:53;10.40;99.90
1165;DHT22;571;50.930;6.926;2023-02-03T07:49:24;10.30;99.90
1165;DHT22;571;50.930;6.926;2023-02-03T07:51:51;10.40;99.90
1165;DHT22;571;50.930;6.926;2023-02-03T07:54:18;10.40;99.90
1165;DHT22;571;50.930;6.926;2023-02-03T07:56:44;10.50;99.90
1165;DHT22;571;50.930;6.926;2023-02-03T07:59:11;10.50;99.90
1165;DHT22;571;50.930;6.926;2023-02-03T08:01:39;10.50;99.90
1165;DHT22;571;50.930;6.926;2023-02-03T08:04:09;10.50;99.90
1165;DHT22;571;50.930;6.926;2023-02-03T08:06:40;10.70;99.90
1165;DHT22;571;50.930;6.926;2023-02-03T08:09:07;10.60;99.90
1165;DHT22;571;50.930;6.926;2023-02-03T08:11:35;10.60;99.90
1165;DHT22;571;50.930;6.926;2023-02-03T08:14:08;10.60;99.90
1165;DHT22;571;50.930;6.926;2023-02-03T08:16:44;10.60;99.90
1165;DHT22;571;50.930;6.926;2023-02-03T08:19:11;10.60;99.90
1165;DHT22;571;50.930;6.926;2023-02-03T08:21:38;10.60;99.90
1165;DHT22;571;50.930;6.926;2023-02-03T08:24:06;10.70;99.80
1165;DHT22;571;50.930;6.926;2023-02-03T08:26:34;10.60;99.90
1165;DHT22;571;50.930;6.926;2023-02-03T08:29:05;10.50;99.90
1165;DHT22;571;50.930;6.926;2023-02-03T08:31:52;10.60;99.90
1165;DHT22;571;50.930;6.926;2023-02-03T08:34:21;10.60;99.90
1165;DHT22;571;50.930;6.926;2023-02-03T08:36:50;10.50;99.90
1165;DHT22;571;50.930;6.926;2023-02-03T08:39:19;10.50;99.90
1165;DHT22;571;50.930;6.926;2023-02-03T08:41:49;10.60;99.90
1165;DHT22;571;50.930;6.926;2023-02-03T08:44:52;10.60;99.90
1165;DHT22;571;50.930;6.926;2023-02-03T08:47:41;10.60;99.90
1165;DHT22;571;50.930;6.926;2023-02-03T08:50:15;10.70;99.90
1165;DHT22;571;50.930;6.926;2023-02-03T08:52:44;10.70;99.90
1165;DHT22;571;50.930;6.926;2023-02-03T08:55:13;10.60;99.90
1165;DHT22;571;50.930;6.926;2023-02-03T08:57:51;10.60;99.90
1165;DHT22;571;50.930;6.926;2023-02-03T09:00:24;10.60;99.90
1165;DHT22;571;50.930;6.926;2023-02-03T09:02:55;10.60;99.90
1165;DHT22;571;50.930;6.926;2023-02-03T09:05:31;10.60;99.90
1165;DHT22;571;50.930;6.926;2023-02-03T09:08:05;10.60;99.90
1165;DHT22;571;50.930;6.926;2023-02-03T09:10:34;10.70;99.90
1165;DHT22;571;50.930;6.926;2023-02-03T09:13:17;10.70;99.90
1165;DHT22;571;50.930;6.926;2023-02-03T09:15:46;10.70;99.90
1165;DHT22;571;50.930;6.926;2023-02-03T09:18:17;10.60;99.90
1165;DHT22;571;50.930;6.926;2023-02-03T09:20:50;10.50;99.90
1165;DHT22;571;50.930;6.926;2023-02-03T09:23:17;10.70;99.90
1165;DHT22;571;50.930;6.926;2023-02-03T09:25:45;10.70;99.90
1165;DHT22;571;50.930;6.926;2023-02-03T09:28:16;10.60;99.90
1165;DHT22;571;50.930;6.926;2023-02-03T09:30:57;10.60;99.90
1165;DHT22;571;50.930;6.926;2023-02-03T09:33:43;10.60;99.90
1165;DHT22;571;50.930;6.926;2023-02-03T09:36:12;10.50;99.90
1165;DHT22;571;50.930;6.926;2023-02-03T09:38:42;10.50;99.90
1165;DHT22;571;50.930;6.926;2023-02-03T09:41:18;10.50;99.90
1165;DHT22;571;50.930;6.926;2023-02-03T09:43:54;10.50;99.90
1165;DHT22;571;50.930;6.926;2023-02-03T09:46:34;10.40;99.90
1165;DHT22;571;50.930;6.926;2023-02-03T09:52:13;10.50;99.90
1165;DHT22;571;50.930;6.926;2023-02-03T09:54:46;10.60;99.90
1165;DHT22;571;50.930;6.926;2023-02-03T09:57:20;10.50;99.90
1165;DHT22;571;50.930;6.926;2023-02-03T09:59:48;10.50;99.90
1165;DHT22;571;50.930;6.926;2023-02-03T10:02:45;10.50;99.90
1165;DHT22;571;50.930;6.926;2023-02-03T10:05:35;10.50;99.90
1165;DHT22;571;50.930;6.926;2023-02-03T10:08:34;10.70;99.90
1165;DHT22;571;50.930;6.926;2023-02-03T10:11:22;10.70;99.90
1165;DHT22;571;50.930;6.926;2023-02-03T10:14:21;10.60;99.90
1165;DHT22;571;50.930;6.926;2023-02-03T10:17:21;10.40;99.90
1165;DHT22;571;50.930;6.926;2023-02-03T10:20:24;10.50;99.90
1165;DHT22;571;50.930;6.926;2023-02-03T10:23:05;10.50;99.90
1165;DHT22;571;50.930;6.926;2023-02-03T10:25:51;10.50;99.90
1165;DHT22;571;50.930;6.926;2023-02-03T10:28:22;10.50;99.90
1165;DHT22;571;50.930;6.926;2023-02-03T10:30:56;10.50;99.90
1165;DHT22;571;50.930;6.926;2023-02-03T10:33:42;10.40;99.90
1165;DHT22;571;50.930;6.926;2023-02-03T10:36:19;10.50;99.90
1165;DHT22;571;50.930;6.926;2023-02-03T10:39:06;10.50;99.90
1165;DHT22;571;50.930;6.926;2023-02-03T10:41:47;10.60;99.90
1165;DHT22;571;50.930;6.926;2023-02-03T10:44:20;10.60;99.90
1165;DHT22;571;50.930;6.926;2023-02-03T10:47:20;10.40;99.90
1165;DHT22;571;50.930;6.926;2023-02-03T10:49:53;10.40;99.90
1165;DHT22;571;50.930;6.926;2023-02-03T10:52:33;10.40;99.90
1165;DHT22;571;50.930;6.926;2023-02-03T10:58:15;10.50;99.90
1165;DHT22;571;50.930;6.926;2023-02-03T11:00:42;10.40;99.90
1165;DHT22;571;50.930;6.926;2023-02-03T11:03:20;10.30;99.90
1165;DHT22;571;50.930;6.926;2023-02-03T11:06:03;10.40;99.90
1165;DHT22;571;50.930;6.926;2023-02-03T11:08:31;10.40;99.90
1165;DHT22;571;50.930;6.926;2023-02-03T11:11:03;10.40;99.90
1165;DHT22;571;50.930;6.926;2023-02-03T11:13:33;10.40;99.90
1165;DHT22;571;50.930;6.926;2023-02-03T11:16:02;10.30;99.90
1165;DHT22;571;50.930;6.926;2023-02-03T11:18:40;10.30;99.90
1165;DHT22;571;50.930;6.926;2023-02-03T11:21:17;10.30;99.90
1165;DHT22;571;50.930;6.926;2023-02-03T11:24:02;10.30;99.90
1165;DHT22;571;50.930;6.926;2023-02-03T11:26:36;10.40;99.90
1165;DHT22;571;50.930;6.926;2023-02-03T11:29:06;10.30;99.90
1165;DHT22;571;50.930;6.926;2023-02-03T11:31:55;10.40;99.90
1165;DHT22;571;50.930;6.926;2023-02-03T11:34:27;10.40;99.90
1165;DHT22;571;50.930;6.926;2023-02-03T11:36:55;10.40;99.90
1165;DHT22;571;50.930;6.926;2023-02-03T11:39:27;10.30;99.90
1165;DHT22;571;50.930;6.926;2023-02-03T11:41:55;10.30;99.90
1165;DHT22;571;50.930;6.926;2023-02-03T11:44:24;10.40;99.90
1165;DHT22;571;50.930;6.926;2023-02-03T11:46:57;10.40;99.90
1165;DHT22;571;50.930;6.926;2023-02-03T11:50:02;10.40;99.90
1165;DHT22;571;50.930;6.926;2023-02-03T11:52:53;10.50;99.90
1165;DHT22;571;50.930;6.926;2023-02-03T11:55:32;10.50;99.90
1165;DHT22;571;50.930;6.926;2023-02-03T12:01:13;10.70;99.90
1165;DHT22;571;50.930;6.926;2023-02-03T12:06:55;10.60;99.90
1165;DHT22;571;50.930;6.926;2023-02-03T12:09:30;10.70;99.90
1165;DHT22;571;50.930;6.926;2023-02-03T12:15:21;10.70;99.90
1165;DHT22;571;50.930;6.926;2023-02-03T12:17:58;10.70;99.90
1165;DHT22;571;50.930;6.926;2023-02-03T12:20:40;10.70;99.90
1165;DHT22;571;50.930;6.926;2023-02-03T12:23:35;10.70;99.90
1165;DHT22;571;50.930;6.926;2023-02-03T12:39:01;10.90;99.90
1165;DHT22;571;50.930;6.926;2023-02-03T12:41:43;10.80;99.90
1165;DHT22;571;50.930;6.926;2023-02-03T12:44:30;10.80;99.90
1165;DHT22;571;50.930;6.926;2023-02-03T12:47:10;10.80;99.90
1165;DHT22;571;50.930;6.926;2023-02-03T12:49:58;10.70;99.90
1165;DHT22;571;50.930;6.926;2023-02-03T12:52:54;10.70;99.90
1165;DHT22;571;50.930;6.926;2023-02-03T12:55:43;10.80;99.90
1165;DHT22;571;50.930;6.926;2023-02-03T12:58:24;10.80;99.90
1165;DHT22;571;50.930;6.926;2023-02-03T13:01:04;10.80;99.90
1165;DHT22;571;50.930;6.926;2023-02-03T13:03:45;10.80;99.90
1165;DHT22;571;50.930;6.926;2023-02-03T13:06:32;10.90;99.90
1165;DHT22;571;50.930;6.926;2023-02-03T13:09:20;10.90;99.90
1165;DHT22;571;50.930;6.926;2023-02-03T13:14:58;10.90;99.90
1165;DHT22;571;50.930;6.926;2023-02-03T13:20:26;10.80;99.90
1165;DHT22;571;50.930;6.926;2023-02-03T13:22:56;10.80;99.90
1165;DHT22;571;50.930;6.926;2023-02-03T13:25:31;10.80;99.90
1165;DHT22;571;50.930;6.926;2023-02-03T13:28:21;10.80;99.90
1165;DHT22;571;50.930;6.926;2023-02-03T13:31:17;10.80;99.90
1165;DHT22;571;50.930;6.926;2023-02-03T13:34:13;10.80;99.90
1165;DHT22;571;50.930;6.926;2023-02-03T13:37:11;10.90;99.90
1165;DHT22;571;50.930;6.926;2023-02-03T13:39:59;10.70;99.90
1165;DHT22;571;50.930;6.926;2023-02-03T13:42:43;10.70;99.90
1165;DHT22;571;50.930;6.926;2023-02-03T13:45:26;10.70;99.90
1165;DHT22;571;50.930;6.926;2023-02-03T13:48:14;10.60;99.90
1165;DHT22;571;50.930;6.926;2023-02-03T13:50:43;10.60;99.90
1165;DHT22;571;50.930;6.926;2023-02-03T13:53:19;10.70;99.90
1165;DHT22;571;50.930;6.926;2023-02-03T13:55:56;10.70;99.90
1165;DHT22;571;50.930;6.926;2023-02-03T13:58:27;10.80;99.90
1165;DHT22;571;50.930;6.926;2023-02-03T14:01:01;10.80;99.90
1165;DHT22;571;50.930;6.926;2023-02-03T14:03:43;10.70;99.90
1165;DHT22;571;50.930;6.926;2023-02-03T14:09:50;10.60;99.90
1165;DHT22;571;50.930;6.926;2023-02-03T14:12:37;10.70;99.90
1165;DHT22;571;50.930;6.926;2023-02-03T14:18:37;10.70;99.90
1165;DHT22;571;50.930;6.926;2023-02-03T14:21:35;10.80;99.90
1165;DHT22;571;50.930;6.926;2023-02-03T14:24:12;10.90;99.90
1165;DHT22;571;50.930;6.926;2023-02-03T14:26:44;10.80;99.90
1165;DHT22;571;50.930;6.926;2023-02-03T14:29:29;10.80;99.90
1165;DHT22;571;50.930;6.926;2023-02-03T14:32:10;10.90;99.90
1165;DHT22;571;50.930;6.926;2023-02-03T14:34:51;10.80;99.90
1165;DHT22;571;50.930;6.926;2023-02-03T14:37:27;10.90;99.90
1165;DHT22;571;50.930;6.926;2023-02-03T14:40:12;10.90;99.90
1165;DHT22;571;50.930;6.926;2023-02-03T14:43:13;10.90;99.90
1165;DHT22;571;50.930;6.926;2023-02-03T14:49:25;11.10;99.90
1165;DHT22;571;50.930;6.926;2023-02-03T14:52:11;11.10;99.90
1165;DHT22;571;50.930;6.926;2023-02-03T14:58:01;11.20;99.90
1165;DHT22;571;50.930;6.926;2023-02-03T15:00:32;11.20;99.90
1165;DHT22;571;50.930;6.926;2023-02-03T15:03:24;11.20;99.90
1165;DHT22;571;50.930;6.926;2023-02-03T15:06:38;11.20;99.90
1165;DHT22;571;50.930;6.926;2023-02-03T15:09:32;11.30;99.90
1165;DHT22;571;50.930;6.926;2023-02-03T15:12:23;11.30;99.90
1165;DHT22;571;50.930;6.926;2023-02-03T15:15:11;11.30;99.90
1165;DHT22;571;50.930;6.926;2023-02-03T15:17:38;11.20;99.90
1165;DHT22;571;50.930;6.926;2023-02-03T15:20:24;11.20;99.90
1165;DHT22;571;50.930;6.926;2023-02-03T15:23:36;11.30;99.90
1165;DHT22;571;50.930;6.926;2023-02-03T15:26:30;11.30;99.90
1165;DHT22;571;50.930;6.926;2023-02-03T15:29:18;11.30;99.90
1165;DHT22;571;50.930;6.926;2023-02-03T15:31:54;11.40;99.90
1165;DHT22;571;50.930;6.926;2023-02-03T15:34:27;11.40;99.90
1165;DHT22;571;50.930;6.926;2023-02-03T15:37:26;11.30;99.90
1165;DHT22;571;50.930;6.926;2023-02-03T15:40:52;11.30;99.90
1165;DHT22;571;50.930;6.926;2023-02-03T15:44:05;11.30;99.90
1165;DHT22;571;50.930;6.926;2023-02-03T15:47:14;11.40;99.90
1165;DHT22;571;50.930;6.926;2023-02-03T15:49:56;11.40;99.90
1165;DHT22;571;50.930;6.926;2023-02-03T15:52:54;11.40;99.90
1165;DHT22;571;50.930;6.926;2023-02-03T15:55:46;11.30;99.90
1165;DHT22;571;50.930;6.926;2023-02-03T16:01:20;11.30;99.90
1165;DHT22;571;50.930;6.926;2023-02-03T16:03:55;11.40;99.90
1165;DHT22;571;50.930;6.926;2023-02-03T16:06:27;11.30;99.90
1165;DHT22;571;50.930;6.926;2023-02-03T16:09:27;11.30;99.90
1165;DHT22;571;50.930;6.926;2023-02-03T16:12:10;11.20;99.90
1165;DHT22;571;50.930;6.926;2023-02-03T16:14:43;11.20;99.90
1165;DHT22;571;50.930;6.926;2023-02-03T16:17:35;11.20;99.90
1165;DHT22;571;50.930;6.926;2023-02-03T16:20:21;11.10;99.90
1165;DHT22;571;50.930;6.926;2023-02-03T16:23:05;11.10;99.90
1165;DHT22;571;50.930;6.926;2023-02-03T16:29:51;11.00;99.90
1165;DHT22;571;50.930;6.926;2023-02-03T16:32:55;10.90;99.90
1165;DHT22;571;50.930;6.926;2023-02-03T16:35:50;10.90;99.90
1165;DHT22;571;50.930;6.926;2023-02-03T16:38:34;11.00;99.90
1165;DHT22;571;50.930;6.926;2023-02-03T16:41:19;10.90;99.90
1165;DHT22;571;50.930;6.926;2023-02-03T16:44:03;10.90;99.90
1165;DHT22;571;50.930;6.926;2023-02-03T16:46:48;10.90;99.90
1165;DHT22;571;50.930;6.926;2023-02-03T16:49:32;10.80;99.90
1165;DHT22;571;50.930;6.926;2023-02-03T16:52:35;10.80;99.90
1165;DHT22;571;50.930;6.926;2023-02-03T16:55:08;10.70;99.90
1165;DHT22;571;50.930;6.926;2023-02-03T17:08:39;10.60;99.90
1165;DHT22;571;50.930;6.926;2023-02-03T17:26:32;10.40;99.90
1165;DHT22;571;50.930;6.926;2023-02-03T17:29:03;10.40;99.90
1165;DHT22;571;50.930;6.926;2023-02-03T17:31:30;10.40;99.90
1165;DHT22;571;50.930;6.926;2023-02-03T17:33:57;10.30;99.90
1165;DHT22;571;50.930;6.926;2023-02-03T17:36:24;10.40;99.90
1165;DHT22;571;50.930;6.926;2023-02-03T17:38:54;10.40;99.90
1165;DHT22;571;50.930;6.926;2023-02-03T17:41:23;10.50;99.90
1165;DHT22;571;50.930;6.926;2023-02-03T17:43:50;10.40;99.90
1165;DHT22;571;50.930;6.926;2023-02-03T17:46:18;10.40;99.90
1165;DHT22;571;50.930;6.926;2023-02-03T17:48:45;10.40;99.90
1165;DHT22;571;50.930;6.926;2023-02-03T17:51:15;10.40;99.90
1165;DHT22;571;50.930;6.926;2023-02-03T17:53:43;10.40;99.90
1165;DHT22;571;50.930;6.926;2023-02-03T17:56:13;10.40;99.90
1165;DHT22;571;50.930;6.926;2023-02-03T17:58:41;10.50;99.90
1165;DHT22;571;50.930;6.926;2023-02-03T18:01:09;10.30;99.90
1165;DHT22;571;50.930;6.926;2023-02-03T18:03:42;10.40;99.90
1165;DHT22;571;50.930;6.926;2023-02-03T18:06:09;10.30;99.90
1165;DHT22;571;50.930;6.926;2023-02-03T18:08:36;10.40;99.90
1165;DHT22;571;50.930;6.926;2023-02-03T18:11:03;10.40;99.90
1165;DHT22;571;50.930;6.926;2023-02-03T18:13:34;10.40;99.90
1165;DHT22;571;50.930;6.926;2023-02-03T18:16:01;10.40;99.90
1165;DHT22;571;50.930;6.926;2023-02-03T18:18:28;10.30;99.90
1165;DHT22;571;50.930;6.926;2023-02-03T18:20:55;10.30;99.90
1165;DHT22;571;50.930;6.926;2023-02-03T18:23:21;10.30;99.90
1165;DHT22;571;50.930;6.926;2023-02-03T18:25:51;10.40;99.90
1165;DHT22;571;50.930;6.926;2023-02-03T18:28:17;10.40;99.90
1165;DHT22;571;50.930;6.926;2023-02-03T18:30:46;10.40;99.90
1165;DHT22;571;50.930;6.926;2023-02-03T18:33:13;10.30;99.90
1165;DHT22;571;50.930;6.926;2023-02-03T18:35:40;10.50;99.90
1165;DHT22;571;50.930;6.926;2023-02-03T18:41:38;10.40;98.90
1165;DHT22;571;50.930;6.926;2023-02-03T18:44:48;10.30;98.80
1165;DHT22;571;50.930;6.926;2023-02-03T18:51:09;10.30;98.40
1165;DHT22;571;50.930;6.926;2023-02-03T18:53:54;10.30;98.40
1165;DHT22;571;50.930;6.926;2023-02-03T18:59:50;10.30;98.70
1165;DHT22;571;50.930;6.926;2023-02-03T19:02:34;10.20;98.50
1165;DHT22;571;50.930;6.926;2023-02-03T19:08:22;10.30;99.10
1165;DHT22;571;50.930;6.926;2023-02-03T19:10:50;10.30;99.70
1165;DHT22;571;50.930;6.926;2023-02-03T19:13:17;10.40;99.90
1165;DHT22;571;50.930;6.926;2023-02-03T19:15:45;10.30;99.90
1165;DHT22;571;50.930;6.926;2023-02-03T19:18:13;10.30;99.90
1165;DHT22;571;50.930;6.926;2023-02-03T19:20:47;10.40;99.90
1165;DHT22;571;50.930;6.926;2023-02-03T19:23:14;10.40;99.90
1165;DHT22;571;50.930;6.926;2023-02-03T19:25:42;10.40;99.90
1165;DHT22;571;50.930;6.926;2023-02-03T19:28:10;10.40;99.90
1165;DHT22;571;50.930;6.926;2023-02-03T19:30:37;10.40;99.90
1165;DHT22;571;50.930;6.926;2023-02-03T19:33:04;10.30;99.90
1165;DHT22;571;50.930;6.926;2023-02-03T19:35:31;10.30;99.90
1165;DHT22;571;50.930;6.926;2023-02-03T19:37:58;10.40;99.90
1165;DHT22;571;50.930;6.926;2023-02-03T19:40:25;10.40;99.90
1165;DHT22;571;50.930;6.926;2023-02-03T19:42:53;10.40;99.90
1165;DHT22;571;50.930;6.926;2023-02-03T19:45:20;10.50;99.90
1165;DHT22;571;50.930;6.926;2023-02-03T19:47:47;10.50;99.90
1165;DHT22;571;50.930;6.926;2023-02-03T19:50:15;10.50;99.90
1165;DHT22;571;50.930;6.926;2023-02-03T19:52:42;10.50;99.90
1165;DHT22;571;50.930;6.926;2023-02-03T19:55:09;10.50;99.90
1165;DHT22;571;50.930;6.926;2023-02-03T19:57:36;10.50;99.90
1165;DHT22;571;50.930;6.926;2023-02-03T20:00:06;10.30;99.90
1165;DHT22;571;50.930;6.926;2023-02-03T20:02:33;10.30;99.90
1165;DHT22;571;50.930;6.926;2023-02-03T20:04:59;10.40;99.90
1165;DHT22;571;50.930;6.926;2023-02-03T20:07:26;10.30;99.90
1165;DHT22;571;50.930;6.926;2023-02-03T20:09:57;10.30;99.90
1165;DHT22;571;50.930;6.926;2023-02-03T20:12:24;10.20;99.90
1165;DHT22;571;50.930;6.926;2023-02-03T20:14:50;10.30;99.90
1165;DHT22;571;50.930;6.926;2023-02-03T20:17:19;10.30;99.90
1165;DHT22;571;50.930;6.926;2023-02-03T20:19:45;10.40;99.90
1165;DHT22;571;50.930;6.926;2023-02-03T20:22:15;10.30;99.90
1165;DHT22;571;50.930;6.926;2023-02-03T20:24:42;10.40;99.90
1165;DHT22;571;50.930;6.926;2023-02-03T20:27:08;10.30;99.90
1165;DHT22;571;50.930;6.926;2023-02-03T20:29:35;10.20;99.90
1165;DHT22;571;50.930;6.926;2023-02-03T20:32:02;10.20;99.90
1165;DHT22;571;50.930;6.926;2023-02-03T20:34:35;10.30;99.90
1165;DHT22;571;50.930;6.926;2023-02-03T20:37:02;10.30;99.90
1165;DHT22;571;50.930;6.926;2023-02-03T20:39:31;10.40;99.90
1165;DHT22;571;50.930;6.926;2023-02-03T20:42:00;10.40;99.90
1165;DHT22;571;50.930;6.926;2023-02-03T20:44:27;10.40;99.90
1165;DHT22;571;50.930;6.926;2023-02-03T20:46:54;10.40;99.90
1165;DHT22;571;50.930;6.926;2023-02-03T20:49:20;10.40;99.90
1165;DHT22;571;50.930;6.926;2023-02-03T20:51:49;10.40;99.90
1165;DHT22;571;50.930;6.926;2023-02-03T20:54:17;10.40;99.90
1165;DHT22;571;50.930;6.926;2023-02-03T20:56:44;10.40;99.90
1165;DHT22;571;50.930;6.926;2023-02-03T20:59:12;10.40;99.90
1165;DHT22;571;50.930;6.926;2023-02-03T21:01:41;10.30;99.90
1165;DHT22;571;50.930;6.926;2023-02-03T21:04:11;10.30;99.90
1165;DHT22;571;50.930;6.926;2023-02-03T21:06:57;10.50;99.90
1165;DHT22;571;50.930;6.926;2023-02-03T21:09:24;10.40;99.60
1165;DHT22;571;50.930;6.926;2023-02-03T21:11:52;10.30;99.90
1165;DHT22;571;50.930;6.926;2023-02-03T21:14:21;10.30;99.60
1165;DHT22;571;50.930;6.926;2023-02-03T21:16:49;10.30;99.70
1165;DHT22;571;50.930;6.926;2023-02-03T21:19:25;10.30;99.50
1165;DHT22;571;50.930;6.926;2023-02-03T21:21:53;10.30;99.50
1165;DHT22;571;50.930;6.926;2023-02-03T21:24:25;10.40;98.90
1165;DHT22;571;50.930;6.926;2023-02-03T21:26:52;10.30;99.00
1165;DHT22;571;50.930;6.926;2023-02-03T21:29:23;10.20;99.20
1165;DHT22;571;50.930;6.926;2023-02-03T21:31:52;10.30;99.30
1165;DHT22;571;50.930;6.926;2023-02-03T21:34:26;10.30;99.30
1165;DHT22;571;50.930;6.926;2023-02-03T21:36:53;10.30;98.40
1165;DHT22;571;50.930;6.926;2023-02-03T21:39:25;10.40;98.60
1165;DHT22;571;50.930;6.926;2023-02-03T21:41:53;10.40;98.40
1165;DHT22;571;50.930;6.926;2023-02-03T21:44:26;10.30;98.20
1165;DHT22;571;50.930;6.926;2023-02-03T21:46:53;10.20;98.30
1165;DHT22;571;50.930;6.926;2023-02-03T21:49:19;10.20;98.30
1165;DHT22;571;50.930;6.926;2023-02-03T21:51:46;10.20;98.10
1165;DHT22;571;50.930;6.926;2023-02-03T21:54:26;10.20;98.10
1165;DHT22;571;50.930;6.926;2023-02-03T21:56:54;10.20;98.20
1165;DHT22;571;50.930;6.926;2023-02-03T21:59:23;10.10;98.20
1165;DHT22;571;50.930;6.926;2023-02-03T22:01:51;10.10;98.40
1165;DHT22;571;50.930;6.926;2023-02-03T22:04:18;10.30;98.60
1165;DHT22;571;50.930;6.926;2023-02-03T22:06:47;10.30;98.00
1165;DHT22;571;50.930;6.926;2023-02-03T22:09:15;10.20;98.60
1165;DHT22;571;50.930;6.926;2023-02-03T22:11:44;10.10;98.70
1165;DHT22;571;50.930;6.926;2023-02-03T22:14:11;10.20;98.60
1165;DHT22;571;50.930;6.926;2023-02-03T22:16:39;10.20;98.50
1165;DHT22;571;50.930;6.926;2023-02-03T22:19:05;10.20;98.70
1165;DHT22;571;50.930;6.926;2023-02-03T22:21:32;10.20;98.60
1165;DHT22;571;50.930;6.926;2023-02-03T22:23:59;10.20;98.80